Time;durP1;ratioP1;P1;durP2;ratioP2;P2;SDS_P1;SDS_P2;PMS_P1;PMS_P2;Temp;Humidity;BMP_temperature;BMP_pressure;BME280_temperature;BME280_humidity;BME280_pressure;Samples;Min_cycle;Max_cycle;Signal;HPM_P1;HPM_P2
2024/04/05 00:01:53;;;;;;;;;;;;;;;23.37;45.44;94247.66;4992908;28;9388;-65
2024/04/05 00:04:19;;;;;;;;;;;;;;;23.41;45.12;94253.66;5009348;28;8796;-65
2024/04/05 00:06:45;;;;;;;;;;;;;;;23.41;45.45;94255.66;5026838;28;7097;-65
2024/04/05 00:09:21;;;;;;;;;;;;;;;23.41;45.25;94264.63;5027552;28;7374;-66
2024/04/05 00:11:48;;;;;;;;;;;;;;;23.41;45.31;94258.38;5029553;28;9058;-65
2024/04/05 00:14:27;;;;;;;;;;;;;;;23.41;45.50;94261.13;5004067;28;8981;-66
2024/04/05 00:17:02;;;;;;;;;;;;;;;23.40;45.15;94260.41;5021516;28;9749;-66
2024/04/05 00:19:46;;;;;;;;;;;;;;;23.41;45.09;94261.13;5032310;28;9041;-65
2024/04/05 00:22:12;;;;;;;;;;;;;;;23.40;45.30;94254.91;5033368;28;7539;-65
2024/04/05 00:24:46;;;;;;;;;;;;;;;23.40;45.49;94260.41;5022685;28;9907;-66
2024/04/05 00:27:18;;;;;;;;;;;;;;;23.40;45.11;94259.66;5037632;28;9119;-65
2024/04/05 00:29:49;;;;;;;;;;;;;;;23.40;44.87;94254.91;5056052;28;9089;-65
2024/04/05 00:32:17;;;;;;;;;;;;;;;23.39;45.26;94258.16;5073317;28;8996;-59
2024/04/05 00:34:47;;;;;;;;;;;;;;;23.39;45.19;94255.41;5053747;28;7146;-59
2024/04/05 00:37:23;;;;;;;;;;;;;;;23.37;44.91;94263.38;5055377;28;9163;-59
2024/04/05 00:39:51;;;;;;;;;;;;;;;23.38;44.87;94259.41;5070200;28;9115;-59
2024/04/05 00:42:18;;;;;;;;;;;;;;;23.39;45.01;94263.63;5056548;28;9448;-59
2024/04/05 00:44:44;;;;;;;;;;;;;;;23.38;45.24;94251.16;5053096;28;9151;-59
2024/04/05 00:47:10;;;;;;;;;;;;;;;23.37;45.03;94244.94;5052694;28;9124;-59
2024/04/05 00:49:37;;;;;;;;;;;;;;;23.37;45.24;94241.44;5069987;28;8722;-59
2024/04/05 00:52:08;;;;;;;;;;;;;;;23.38;44.85;94257.38;5055311;28;9418;-59
2024/04/05 00:54:39;;;;;;;;;;;;;;;23.39;44.96;94252.66;5087787;28;9412;-59
2024/04/05 00:57:17;;;;;;;;;;;;;;;23.39;45.16;94252.66;5071015;28;8714;-59
2024/04/05 00:59:43;;;;;;;;;;;;;;;23.34;44.74;94245.91;5052218;28;9127;-59
2024/04/05 01:02:09;;;;;;;;;;;;;;;23.37;45.10;94238.69;5057813;28;9412;-59
2024/04/05 01:04:35;;;;;;;;;;;;;;;23.40;44.99;94234.94;5052741;28;9111;-59
2024/04/05 01:07:14;;;;;;;;;;;;;;;23.39;44.84;94230.69;5069329;28;8743;-59
2024/04/05 01:09:50;;;;;;;;;;;;;;;23.29;45.15;94212.97;5085954;28;7445;-59
2024/04/05 01:12:18;;;;;;;;;;;;;;;23.38;45.25;94227.19;5071333;28;7002;-59
2024/04/05 01:14:45;;;;;;;;;;;;;;;23.38;44.94;94226.47;5053349;28;7254;-60
2024/04/05 01:17:11;;;;;;;;;;;;;;;23.39;44.96;94230.69;5083603;28;8751;-60
2024/04/05 01:19:43;;;;;;;;;;;;;;;23.39;45.34;94236.19;5069424;28;8629;-59
2024/04/05 01:22:24;;;;;;;;;;;;;;;23.40;44.76;94229.47;5067820;28;9454;-59
2024/04/05 01:25:04;;;;;;;;;;;;;;;23.39;44.92;94222.47;5055661;28;7216;-59
2024/04/05 01:27:34;;;;;;;;;;;;;;;23.36;45.19;94220.75;5067667;28;9055;-59
2024/04/05 01:30:02;;;;;;;;;;;;;;;23.38;44.67;94218.25;5052196;28;7153;-59
2024/04/05 01:32:30;;;;;;;;;;;;;;;23.38;44.71;94221.72;5088577;28;9087;-59
2024/04/05 01:35:03;;;;;;;;;;;;;;;23.39;44.88;94222.47;5053660;28;9096;-59
2024/04/05 01:37:31;;;;;;;;;;;;;;;23.36;44.59;94221.47;5051876;28;9180;-59
2024/04/05 01:39:57;;;;;;;;;;;;;;;23.37;45.33;94216.72;5053640;28;7271;-59
2024/04/05 01:42:33;;;;;;;;;;;;;;;23.37;45.01;94212.00;5054779;28;9500;-66
2024/04/05 01:45:09;;;;;;;;;;;;;;;23.37;44.68;94225.72;5059480;28;9635;-69
2024/04/05 01:48:03;;;;;;;;;;;;;;;23.37;44.76;94216.72;5059170;28;8776;-63
2024/04/05 01:50:29;;;;;;;;;;;;;;;23.38;45.18;94215.50;5075786;28;8967;-63
2024/04/05 01:52:56;;;;;;;;;;;;;;;23.39;44.98;94216.97;5088946;28;9361;-64
2024/04/05 01:55:22;;;;;;;;;;;;;;;23.39;44.88;94214.22;5075317;28;9696;-63
2024/04/05 01:57:50;;;;;;;;;;;;;;;23.37;44.83;94211.25;5056588;28;9022;-63
2024/04/05 02:00:18;;;;;;;;;;;;;;;23.37;44.79;94208.50;5070595;28;8624;-63
2024/04/05 02:02:47;;;;;;;;;;;;;;;23.37;44.92;94216.72;5074377;28;8655;-63
2024/04/05 02:05:13;;;;;;;;;;;;;;;23.37;45.10;94217.47;5056020;28;9495;-64
2024/04/05 02:07:40;;;;;;;;;;;;;;;23.38;44.71;94220.97;5061547;28;9048;-63
2024/04/05 02:10:07;;;;;;;;;;;;;;;23.34;44.82;94218.47;5070458;28;8736;-63
2024/04/05 02:12:37;;;;;;;;;;;;;;;23.36;44.63;94220.75;5072798;28;7385;-63
2024/04/05 02:15:03;;;;;;;;;;;;;;;23.37;44.84;94219.47;5067636;28;9562;-63
2024/04/05 02:17:30;;;;;;;;;;;;;;;23.33;44.94;94218.94;5058520;28;8952;-64
2024/04/05 02:19:57;;;;;;;;;;;;;;;23.36;44.62;94228.97;5057454;28;9598;-64
2024/04/05 02:22:25;;;;;;;;;;;;;;;23.35;44.94;94225.47;5076011;28;9065;-64
2024/04/05 02:25:01;;;;;;;;;;;;;;;23.37;44.69;94222.22;5087750;28;8956;-63
2024/04/05 02:27:27;;;;;;;;;;;;;;;23.37;44.72;94211.25;5057407;28;8933;-61
2024/04/05 02:29:54;;;;;;;;;;;;;;;23.37;44.84;94211.25;5067599;28;8691;-65
2024/04/05 02:32:23;;;;;;;;;;;;;;;23.37;45.10;94214.75;5069031;28;9982;-65
2024/04/05 02:34:51;;;;;;;;;;;;;;;23.36;44.83;94207.00;5055964;28;7136;-65
2024/04/05 02:37:19;;;;;;;;;;;;;;;23.35;45.24;94211.00;5087120;28;8748;-66
2024/04/05 02:39:47;;;;;;;;;;;;;;;23.35;45.00;94198.03;5086755;28;9106;-66
2024/04/05 02:42:13;;;;;;;;;;;;;;;23.33;44.83;94197.00;5056743;28;9104;-65
2024/04/05 02:44:39;;;;;;;;;;;;;;;23.35;44.76;94205.50;5052991;28;9428;-65
2024/04/05 02:47:08;;;;;;;;;;;;;;;23.34;44.68;94201.28;5056169;28;9448;-66
2024/04/05 02:49:36;;;;;;;;;;;;;;;23.35;45.11;94213.75;5066664;28;9490;-66
2024/04/05 02:52:05;;;;;;;;;;;;;;;23.36;45.02;94212.50;5086756;28;6865;-59
2024/04/05 02:54:32;;;;;;;;;;;;;;;23.34;44.58;94215.72;5074873;28;8823;-59
2024/04/05 02:56:58;;;;;;;;;;;;;;;23.35;44.94;94214.50;5089722;28;7272;-59
2024/04/05 02:59:24;;;;;;;;;;;;;;;23.33;44.85;94213.47;5081069;28;8744;-59
2024/04/05 03:01:49;;;;;;;;;;;;;;;23.33;44.89;94211.50;5067988;28;8388;-59
2024/04/05 03:04:15;;;;;;;;;;;;;;;23.31;44.65;94213.97;5056581;28;9181;-59
2024/04/05 03:06:41;;;;;;;;;;;;;;;23.32;45.11;94218.19;5056638;28;8698;-59
2024/04/05 03:09:07;;;;;;;;;;;;;;;23.32;45.12;94220.19;5073377;28;9170;-59
2024/04/05 03:11:33;;;;;;;;;;;;;;;23.32;44.88;94225.69;5054891;28;9390;-59
2024/04/05 03:13:59;;;;;;;;;;;;;;;23.31;44.81;94229.69;5057133;28;9742;-59
2024/04/05 03:16:25;;;;;;;;;;;;;;;23.30;44.67;94228.16;5072918;28;7704;-59
2024/04/05 03:18:53;;;;;;;;;;;;;;;23.27;44.43;94219.69;5072528;28;9080;-59
2024/04/05 03:21:19;;;;;;;;;;;;;;;23.31;44.74;94224.94;5056041;28;8670;-59
2024/04/05 03:23:49;;;;;;;;;;;;;;;23.32;45.18;94220.19;5077826;28;9400;-59
2024/04/05 03:26:17;;;;;;;;;;;;;;;23.31;44.77;94210.47;5056004;28;9413;-59
2024/04/05 03:28:45;;;;;;;;;;;;;;;23.31;44.76;94202.25;5073009;28;9338;-59
2024/04/05 03:31:11;;;;;;;;;;;;;;;23.30;44.22;94204.22;5082746;28;9491;-58
2024/04/05 03:33:38;;;;;;;;;;;;;;;23.30;44.74;94193.25;5057933;28;9909;-59
2024/04/05 03:36:05;;;;;;;;;;;;;;;23.30;44.82;94198.00;5059058;28;8814;-59
2024/04/05 03:38:31;;;;;;;;;;;;;;;23.30;44.81;94189.75;5056816;28;8929;-59
2024/04/05 03:40:57;;;;;;;;;;;;;;;23.27;44.79;94195.00;5067302;28;8942;-58
2024/04/05 03:43:23;;;;;;;;;;;;;;;23.24;44.94;94184.28;5086657;28;7287;-59
2024/04/05 03:45:49;;;;;;;;;;;;;;;23.27;45.03;94184.03;5054874;28;8663;-59
2024/04/05 03:48:17;;;;;;;;;;;;;;;23.29;44.52;94191.03;5088042;28;7059;-59
2024/04/05 03:50:43;;;;;;;;;;;;;;;23.26;45.06;94195.50;5053997;28;9095;-59
2024/04/05 03:53:09;;;;;;;;;;;;;;;23.29;44.89;94202.00;5062044;28;8665;-59
2024/04/05 03:55:37;;;;;;;;;;;;;;;23.29;44.53;94191.03;5053597;28;8113;-59
2024/04/05 03:58:04;;;;;;;;;;;;;;;23.28;45.08;94187.53;5068443;28;7195;-59
2024/04/05 04:00:30;;;;;;;;;;;;;;;23.21;45.08;94183.28;5068394;28;8741;-59
2024/04/05 04:02:58;;;;;;;;;;;;;;;23.27;44.49;94186.75;5070353;28;7122;-63
2024/04/05 04:05:29;;;;;;;;;;;;;;;23.27;44.57;94186.75;5058578;28;9172;-63
2024/04/05 04:07:55;;;;;;;;;;;;;;;23.24;44.59;94181.53;5055958;28;7312;-63
2024/04/05 04:10:28;;;;;;;;;;;;;;;23.25;44.63;94186.53;5082054;28;8692;-63
2024/04/05 04:12:54;;;;;;;;;;;;;;;23.25;45.01;94188.50;5056570;28;9324;-63
2024/04/05 04:15:50;;;;;;;;;;;;;;;23.25;44.80;94194.00;5072716;28;8750;-63
2024/04/05 04:18:26;;;;;;;;;;;;;;;23.26;44.85;94184.53;4996667;28;9117;-63
2024/04/05 04:20:52;;;;;;;;;;;;;;;23.23;44.67;94174.53;4994808;28;8824;-63
2024/04/05 04:23:20;;;;;;;;;;;;;;;23.22;44.28;94170.31;4991980;28;9800;-62
2024/04/05 04:25:49;;;;;;;;;;;;;;;23.23;44.99;94169.06;4977395;28;9652;-63
2024/04/05 04:28:27;;;;;;;;;;;;;;;23.20;44.88;94173.56;4987290;28;9004;-61
2024/04/05 04:30:54;;;;;;;;;;;;;;;23.22;45.06;94173.06;4973920;28;8869;-63
2024/04/05 04:33:20;;;;;;;;;;;;;;;23.23;45.10;94164.31;4991045;28;6870;-62
2024/04/05 04:35:55;;;;;;;;;;;;;;;23.29;44.88;94174.56;4975125;28;9341;-62
2024/04/05 04:38:21;;;;;;;;;;;;;;;23.29;44.88;94167.06;4993150;28;8054;-63
2024/04/05 04:40:47;;;;;;;;;;;;;;;23.31;44.67;94174.81;4993769;28;8740;-63
2024/04/05 04:43:32;;;;;;;;;;;;;;;23.33;44.73;94172.31;4998698;28;8809;-66
2024/04/05 04:46:16;;;;;;;;;;;;;;;23.33;44.87;94167.59;4970791;28;9016;-67
2024/04/05 04:48:47;;;;;;;;;;;;;;;23.38;44.91;94174.31;4988384;28;9030;-65
2024/04/05 04:51:14;;;;;;;;;;;;;;;23.30;45.27;94174.03;4976811;28;9349;-66
2024/04/05 04:53:42;;;;;;;;;;;;;;;23.35;44.94;94178.06;5007987;28;9620;-65
2024/04/05 04:56:18;;;;;;;;;;;;;;;23.40;44.95;94174.56;5052124;28;9099;-63
2024/04/05 04:58:44;;;;;;;;;;;;;;;23.40;45.21;94183.56;5052468;28;8730;-64
2024/04/05 05:01:10;;;;;;;;;;;;;;;23.39;45.62;94178.56;5083068;28;7158;-64
2024/04/05 05:03:36;;;;;;;;;;;;;;;23.45;45.25;94182.03;5055257;28;8652;-63
2024/04/05 05:06:03;;;;;;;;;;;;;;;23.45;45.51;94182.03;5082200;28;9395;-61
2024/04/05 05:08:30;;;;;;;;;;;;;;;23.48;45.54;94186.53;5053305;28;9486;-60
2024/04/05 05:10:56;;;;;;;;;;;;;;;23.47;45.54;94177.53;5054785;28;9042;-60
2024/04/05 05:13:24;;;;;;;;;;;;;;;23.49;45.61;94171.56;5049503;28;9298;-60
2024/04/05 05:15:52;;;;;;;;;;;;;;;23.52;45.33;94173.28;5053236;28;7131;-60
2024/04/05 05:18:18;;;;;;;;;;;;;;;23.54;45.53;94170.78;5058585;28;9040;-60
2024/04/05 05:20:51;;;;;;;;;;;;;;;23.53;46.14;94177.53;5055597;28;9049;-60
2024/04/05 05:23:19;;;;;;;;;;;;;;;23.54;45.56;94188.00;5057427;28;8792;-60
2024/04/05 05:25:48;;;;;;;;;;;;;;;23.57;46.08;94191.75;5053586;28;9908;-61
2024/04/05 05:28:16;;;;;;;;;;;;;;;23.59;45.92;94190.00;5084337;28;8269;-61
2024/04/05 05:30:42;;;;;;;;;;;;;;;23.58;46.18;94195.97;5074606;28;9203;-60
2024/04/05 05:33:10;;;;;;;;;;;;;;;23.58;45.73;94199.47;5073948;28;9396;-61
2024/04/05 05:35:37;;;;;;;;;;;;;;;23.56;45.18;94203.97;5066722;28;8621;-61
2024/04/05 05:38:06;;;;;;;;;;;;;;;23.49;44.94;94188.03;5076237;28;9476;-61
2024/04/05 05:40:37;;;;;;;;;;;;;;;23.52;45.41;94196.00;5079499;28;8819;-61
2024/04/05 05:43:10;;;;;;;;;;;;;;;23.54;45.03;94192.75;5092233;28;8820;-61
2024/04/05 05:45:56;;;;;;;;;;;;;;;23.51;45.53;94185.53;5088355;28;9240;-61
2024/04/05 05:48:53;;;;;;;;;;;;;;;23.49;45.23;94179.81;5080193;28;7304;-63
2024/04/05 05:51:28;;;;;;;;;;;;;;;23.43;44.12;94177.06;5061858;28;8930;-62
2024/04/05 05:54:29;;;;;;;;;;;;;;;23.41;44.47;94179.56;5095331;28;9013;-64
2024/04/05 05:56:55;;;;;;;;;;;;;;;23.41;44.79;94176.06;5078425;28;9064;-61
2024/04/05 05:59:26;;;;;;;;;;;;;;;23.42;45.44;94169.31;5058554;28;8584;-61
2024/04/05 06:01:52;;;;;;;;;;;;;;;23.44;45.31;94166.81;5078117;28;8782;-60
2024/04/05 06:04:18;;;;;;;;;;;;;;;23.45;45.13;94179.28;5077007;28;9089;-61
2024/04/05 06:06:44;;;;;;;;;;;;;;;23.45;45.33;94184.78;5077255;28;9474;-61
2024/04/05 06:09:14;;;;;;;;;;;;;;;23.46;45.07;94191.78;5058614;28;9029;-61
2024/04/05 06:12:30;;;;;;;;;;;;;;;23.45;45.03;94193.00;5077120;28;7307;-61
2024/04/05 06:15:06;;;;;;;;;;;;;;;23.44;45.46;94189.53;5088796;28;7214;-61
2024/04/05 06:17:51;;;;;;;;;;;;;;;23.47;45.21;94187.78;5076630;28;8605;-61
2024/04/05 06:20:17;;;;;;;;;;;;;;;23.47;44.99;94193.28;5090716;28;8632;-61
2024/04/05 06:22:46;;;;;;;;;;;;;;;23.46;45.35;94192.53;5091874;28;9134;-60
2024/04/05 06:25:13;;;;;;;;;;;;;;;23.48;45.57;94194.75;5073754;28;7091;-61
2024/04/05 06:27:47;;;;;;;;;;;;;;;23.47;45.39;94194.00;5058594;28;8332;-61
2024/04/05 06:30:20;;;;;;;;;;;;;;;23.48;45.35;94194.75;5055621;28;8728;-61
2024/04/05 06:33:35;;;;;;;;;;;;;;;23.47;45.67;94199.50;5076481;28;6890;-61
2024/04/05 06:36:02;;;;;;;;;;;;;;;23.49;45.83;94196.28;5016565;28;9253;-61
2024/04/05 06:39:05;;;;;;;;;;;;;;;23.48;45.67;94194.75;5013952;28;9053;-61
2024/04/05 06:41:39;;;;;;;;;;;;;;;23.47;45.66;94187.78;4962878;28;9159;-61
2024/04/05 06:44:07;;;;;;;;;;;;;;;23.45;45.72;94185.53;4960712;28;9420;-61
2024/04/05 06:46:34;;;;;;;;;;;;;;;23.47;45.67;94194.00;4978317;28;8695;-62
2024/04/05 06:49:00;;;;;;;;;;;;;;;23.50;45.40;94179.28;4955646;28;7244;-64
2024/04/05 06:51:26;;;;;;;;;;;;;;;23.51;46.06;94183.53;4978641;28;8962;-62
2024/04/05 06:53:53;;;;;;;;;;;;;;;23.57;46.79;94191.75;4971972;28;7003;-62
2024/04/05 06:56:19;;;;;;;;;;;;;;;23.65;53.20;94203.72;4960054;28;9073;-62
2024/04/05 06:58:45;;;;;;;;;;;;;;;24.04;68.74;94203.59;4984980;28;9057;-62
2024/04/05 07:01:11;;;;;;;;;;;;;;;24.49;70.05;94197.44;4959074;28;9330;-63
2024/04/05 07:03:37;;;;;;;;;;;;;;;24.92;71.16;94191.47;4955927;28;8890;-62
2024/04/05 07:06:03;;;;;;;;;;;;;;;25.29;72.79;94188.94;4982314;28;7166;-63
2024/04/05 07:08:31;;;;;;;;;;;;;;;25.60;73.05;94179.44;4976489;28;7301;-63
2024/04/05 07:10:58;;;;;;;;;;;;;;;25.98;71.35;94190.03;4975279;28;9399;-62
2024/04/05 07:13:27;;;;;;;;;;;;;;;26.24;70.17;94192.25;4968626;28;9077;-62
2024/04/05 07:15:53;;;;;;;;;;;;;;;26.43;68.25;94187.50;5045064;28;8812;-68
2024/04/05 07:18:24;;;;;;;;;;;;;;;26.54;65.64;94186.59;5052094;28;8759;-67
2024/04/05 07:20:50;;;;;;;;;;;;;;;26.61;60.28;94192.28;5054083;28;9084;-66
2024/04/05 07:23:19;;;;;;;;;;;;;;;26.59;63.21;94188.56;5056526;28;7110;-58
2024/04/05 07:25:45;;;;;;;;;;;;;;;26.59;63.21;94183.78;5055653;28;7008;-58
2024/04/05 07:28:13;;;;;;;;;;;;;;;26.58;62.13;94187.06;5085007;28;7292;-58
2024/04/05 07:30:40;;;;;;;;;;;;;;;26.55;61.35;94193.63;5054914;28;7275;-58
2024/04/05 07:33:08;;;;;;;;;;;;;;;26.55;60.84;94191.63;5083855;28;9199;-59
2024/04/05 07:35:36;;;;;;;;;;;;;;;26.53;60.99;94196.16;5052687;28;8601;-58
2024/04/05 07:38:07;;;;;;;;;;;;;;;26.50;60.47;94186.91;5059480;28;9034;-58
2024/04/05 07:40:35;;;;;;;;;;;;;;;26.50;60.08;94191.69;5083978;28;9659;-58
2024/04/05 07:43:02;;;;;;;;;;;;;;;26.43;59.14;94190.25;5086499;28;7272;-58
2024/04/05 07:45:35;;;;;;;;;;;;;;;26.39;59.12;94186.31;5089045;28;9045;-58
2024/04/05 07:48:09;;;;;;;;;;;;;;;26.39;58.92;94189.06;5075661;28;8919;-58
2024/04/05 07:50:38;;;;;;;;;;;;;;;26.39;58.60;94194.56;5057323;28;8997;-58
2024/04/05 07:53:04;;;;;;;;;;;;;;;26.37;58.42;94197.13;5058095;28;8959;-58
2024/04/05 07:55:43;;;;;;;;;;;;;;;26.32;57.50;94200.69;5057656;28;9044;-58
2024/04/05 07:58:09;;;;;;;;;;;;;;;25.91;47.90;94170.56;5058034;28;9337;-58
2024/04/05 08:00:36;;;;;;;;;;;;;;;25.15;46.48;94174.28;5055185;28;8738;-58
2024/04/05 08:03:06;;;;;;;;;;;;;;;24.57;46.39;94181.91;5056069;28;9473;-58
2024/04/05 08:05:37;;;;;;;;;;;;;;;24.28;47.20;94177.06;5054896;28;8718;-59
2024/04/05 08:08:04;;;;;;;;;;;;;;;24.09;46.43;94184.41;5052692;28;9344;-59
2024/04/05 08:10:33;;;;;;;;;;;;;;;23.94;47.56;94189.41;5052732;28;9952;-58
2024/04/05 08:12:58;;;;;;;;;;;;;;;23.84;46.88;94191.69;5056579;28;8814;-59
2024/04/05 08:15:26;;;;;;;;;;;;;;;23.77;47.76;94199.72;5055318;28;7249;-59
2024/04/05 08:17:52;;;;;;;;;;;;;;;23.68;46.71;94200.72;5055865;28;9143;-58
2024/04/05 08:20:19;;;;;;;;;;;;;;;23.61;46.91;94192.25;5070498;28;9640;-59
2024/04/05 08:22:45;;;;;;;;;;;;;;;23.60;46.47;94194.25;5053424;28;9263;-59
2024/04/05 08:25:11;;;;;;;;;;;;;;;23.57;46.88;94200.00;5081092;28;9472;-58
2024/04/05 08:27:38;;;;;;;;;;;;;;;23.55;47.32;94206.00;5058385;28;9422;-59
2024/04/05 08:30:15;;;;;;;;;;;;;;;23.53;47.90;94205.00;5072857;28;8804;-59
2024/04/05 08:32:42;;;;;;;;;;;;;;;23.52;48.24;94208.97;5056286;28;8874;-59
2024/04/05 08:35:16;;;;;;;;;;;;;;;23.53;47.74;94202.25;5051173;28;9269;-59
2024/04/05 08:37:45;;;;;;;;;;;;;;;23.49;47.44;94218.22;5052427;28;8955;-59
2024/04/05 08:40:12;;;;;;;;;;;;;;;23.47;47.55;94212.50;5053609;28;9414;-59
2024/04/05 08:42:46;;;;;;;;;;;;;;;23.47;48.17;94223.47;5051468;28;7242;-59
2024/04/05 08:45:14;;;;;;;;;;;;;;;23.46;47.60;94227.47;5084192;28;9407;-60
2024/04/05 08:47:41;;;;;;;;;;;;;;;23.42;47.39;94224.22;5050902;28;8028;-60
2024/04/05 08:50:14;;;;;;;;;;;;;;;23.48;48.01;94230.44;5081636;28;9108;-59
2024/04/05 08:52:43;;;;;;;;;;;;;;;23.52;47.84;94233.69;5051535;28;8704;-59
2024/04/05 08:55:09;;;;;;;;;;;;;;;23.50;47.80;94231.44;5050167;28;9446;-59
2024/04/05 08:57:41;;;;;;;;;;;;;;;23.51;47.66;94226.72;5051826;28;8202;-59
2024/04/05 09:00:14;;;;;;;;;;;;;;;23.52;48.46;94228.94;5054398;28;9441;-60
2024/04/05 09:02:42;;;;;;;;;;;;;;;23.48;47.68;94224.97;5055018;28;9084;-59
2024/04/05 09:05:09;;;;;;;;;;;;;;;23.50;47.84;94234.19;5066860;28;9430;-59
2024/04/05 09:07:37;;;;;;;;;;;;;;;23.50;47.29;94230.69;5054257;28;9151;-59
2024/04/05 09:10:17;;;;;;;;;;;;;;;23.51;48.31;94227.44;5050268;28;9308;-59
2024/04/05 09:12:51;;;;;;;;;;;;;;;23.47;47.90;94221.47;5053695;28;9120;-59
2024/04/05 09:15:21;;;;;;;;;;;;;;;23.52;46.81;94222.69;5052237;28;9380;-59
2024/04/05 09:17:49;;;;;;;;;;;;;;;23.51;47.09;94232.94;5055510;28;9133;-59
2024/04/05 09:20:31;;;;;;;;;;;;;;;23.52;47.71;94223.47;5054422;28;7278;-60
2024/04/05 09:23:03;;;;;;;;;;;;;;;23.54;47.07;94222.94;5047245;28;9450;-60
2024/04/05 09:25:30;;;;;;;;;;;;;;;23.53;47.38;94226.97;5052569;28;8713;-59
2024/04/05 09:28:16;;;;;;;;;;;;;;;23.52;46.82;94230.94;5050702;28;9594;-60
2024/04/05 09:30:43;;;;;;;;;;;;;;;23.48;46.99;94227.69;5081564;28;9558;-59
2024/04/05 09:33:19;;;;;;;;;;;;;;;23.54;47.42;94228.44;5054956;28;7283;-60
2024/04/05 09:35:49;;;;;;;;;;;;;;;23.61;46.91;94236.19;5052863;28;9175;-61
2024/04/05 09:38:15;;;;;;;;;;;;;;;23.63;47.59;94234.44;5052054;28;7219;-60
2024/04/05 09:40:42;;;;;;;;;;;;;;;23.68;47.83;94227.44;5052665;28;9762;-60
2024/04/05 09:43:08;;;;;;;;;;;;;;;23.67;47.87;94225.94;5052489;28;9535;-59
2024/04/05 09:45:40;;;;;;;;;;;;;;;23.67;47.51;94234.16;5055010;28;9510;-58
2024/04/05 09:48:08;;;;;;;;;;;;;;;23.69;47.88;94234.41;5081448;28;9886;-59
2024/04/05 09:50:37;;;;;;;;;;;;;;;23.71;47.52;94238.16;5083456;28;7044;-60
2024/04/05 09:53:08;;;;;;;;;;;;;;;23.84;46.73;94243.88;5055896;28;9118;-59
2024/04/05 09:55:39;;;;;;;;;;;;;;;23.92;45.51;94247.59;5051076;28;8656;-59
2024/04/05 09:58:08;;;;;;;;;;;;;;;23.99;45.77;94249.06;5052416;28;9473;-59
2024/04/05 10:00:40;;;;;;;;;;;;;;;23.97;44.79;94235.84;5052833;28;6903;-59
2024/04/05 10:03:09;;;;;;;;;;;;;;;23.98;44.24;94233.84;5071534;28;7143;-58
2024/04/05 10:05:35;;;;;;;;;;;;;;;23.87;44.33;94239.38;5059551;28;8749;-58
2024/04/05 10:08:16;;;;;;;;;;;;;;;23.77;44.88;94238.16;5057309;28;9126;-58
2024/04/05 10:10:44;;;;;;;;;;;;;;;23.77;44.37;94238.88;5082138;28;9551;-57
2024/04/05 10:13:23;;;;;;;;;;;;;;;23.78;44.34;94231.41;5087067;28;8750;-58
2024/04/05 10:16:01;;;;;;;;;;;;;;;23.79;44.45;94235.66;5078223;28;9202;-58
2024/04/05 10:18:39;;;;;;;;;;;;;;;23.78;44.72;94232.16;5054662;28;7199;-58
2024/04/05 10:21:08;;;;;;;;;;;;;;;23.80;44.19;94237.88;5055966;28;8233;-58
2024/04/05 10:23:36;;;;;;;;;;;;;;;23.86;44.81;94237.88;5056899;28;8721;-58
2024/04/05 10:26:07;;;;;;;;;;;;;;;23.84;44.37;94241.13;5054158;28;7029;-58
2024/04/05 10:28:33;;;;;;;;;;;;;;;23.89;44.94;94245.13;5059027;28;9726;-58
2024/04/05 10:31:02;;;;;;;;;;;;;;;23.93;44.33;94234.59;5090101;28;9419;-58
2024/04/05 10:33:29;;;;;;;;;;;;;;;23.85;44.50;94226.16;5071360;28;8539;-58
2024/04/05 10:36:00;;;;;;;;;;;;;;;23.88;44.31;94241.59;5054437;28;9119;-58
2024/04/05 10:38:29;;;;;;;;;;;;;;;23.87;44.70;94242.13;5058455;28;7798;-58
2024/04/05 10:41:00;;;;;;;;;;;;;;;23.89;44.58;94245.88;5057878;28;8678;-58
2024/04/05 10:43:27;;;;;;;;;;;;;;;23.90;44.04;94235.63;5056496;28;7330;-58
2024/04/05 10:46:03;;;;;;;;;;;;;;;23.93;44.29;94240.09;5056231;28;7253;-58
2024/04/05 10:48:36;;;;;;;;;;;;;;;23.92;43.17;94230.38;5057174;28;7428;-58
2024/04/05 10:51:35;;;;;;;;;;;;;;;23.94;44.15;94230.63;5060289;28;7137;-58
2024/04/05 10:54:11;;;;;;;;;;;;;;;23.94;43.85;94227.88;5076561;28;9413;-62
2024/04/05 10:56:40;;;;;;;;;;;;;;;23.93;43.69;94226.38;5072605;28;8735;-61
2024/04/05 10:59:11;;;;;;;;;;;;;;;24.01;43.45;94235.59;5050683;28;9081;-62
2024/04/05 11:01:40;;;;;;;;;;;;;;;23.94;43.63;94231.38;5073004;28;7516;-61
2024/04/05 11:04:13;;;;;;;;;;;;;;;24.00;43.71;94228.59;5073374;28;7288;-61
2024/04/05 11:06:40;;;;;;;;;;;;;;;24.02;43.62;94245.34;5073514;28;7562;-62
2024/04/05 11:09:14;;;;;;;;;;;;;;;24.05;42.75;94235.38;5074683;28;7256;-62
2024/04/05 11:11:42;;;;;;;;;;;;;;;24.09;43.55;94250.34;5084844;28;8871;-61
2024/04/05 11:14:10;;;;;;;;;;;;;;;24.09;43.83;94242.09;5080871;28;7384;-62
2024/04/05 11:16:41;;;;;;;;;;;;;;;24.10;43.08;94246.31;5051339;28;9070;-62
2024/04/05 11:19:24;;;;;;;;;;;;;;;24.05;43.13;94229.88;5071232;28;7077;-62
2024/04/05 11:22:42;;;;;;;;;;;;;;;24.12;43.65;94243.81;5073904;28;7320;-62
2024/04/05 11:28:52;;;;;;;;;;;;;;;24.17;43.28;94242.31;5018028;28;7934;-62
2024/04/05 11:31:56;;;;;;;;;;;;;;;24.24;43.35;94248.03;5018686;28;7167;-62
2024/04/05 11:34:26;;;;;;;;;;;;;;;24.23;43.31;94245.81;5013330;28;7237;-62
2024/04/05 11:37:07;;;;;;;;;;;;;;;24.19;42.42;94240.56;5015348;28;7131;-64
2024/04/05 11:40:09;;;;;;;;;;;;;;;24.26;42.60;94250.28;5012361;28;7425;-63
2024/04/05 11:46:52;;;;;;;;;;;;;;;24.52;42.00;94239.69;5013402;28;7297;-61
2024/04/05 11:49:27;;;;;;;;;;;;;;;24.56;42.51;94240.91;4968609;28;7321;-61
2024/04/05 11:51:53;;;;;;;;;;;;;;;24.55;41.54;94239.44;4935701;28;7399;-60
2024/04/05 11:54:20;;;;;;;;;;;;;;;24.62;41.15;94251.91;4953426;28;6879;-60
2024/04/05 11:56:47;;;;;;;;;;;;;;;24.62;41.55;94233.38;4962373;28;7018;-61
2024/04/05 11:59:13;;;;;;;;;;;;;;;24.59;41.40;94236.41;4956901;28;7199;-60
2024/04/05 12:01:39;;;;;;;;;;;;;;;24.53;41.25;94233.66;4966012;28;9948;-61
2024/04/05 12:04:08;;;;;;;;;;;;;;;24.54;41.69;94228.91;4969908;28;7240;-65
2024/04/05 12:06:34;;;;;;;;;;;;;;;24.51;41.36;94238.91;4970628;28;7643;-65
2024/04/05 12:09:19;;;;;;;;;;;;;;;24.58;41.44;94240.38;4970223;28;7225;-65
2024/04/05 12:11:58;;;;;;;;;;;;;;;24.60;41.04;94238.63;4969165;28;7386;-65
2024/04/05 12:14:44;;;;;;;;;;;;;;;24.63;40.84;94234.13;4968528;28;7112;-65
2024/04/05 12:17:21;;;;;;;;;;;;;;;24.64;41.70;94236.34;4955047;28;7868;-65
2024/04/05 12:19:58;;;;;;;;;;;;;;;24.64;41.30;94232.88;4971668;28;7200;-65
2024/04/05 12:22:25;;;;;;;;;;;;;;;24.59;40.64;94223.41;4972172;28;7252;-65
2024/04/05 12:24:54;;;;;;;;;;;;;;;24.66;40.75;94238.63;4980731;28;7022;-64
2024/04/05 12:27:20;;;;;;;;;;;;;;;24.62;40.81;94238.88;5070572;28;7094;-65
2024/04/05 12:29:50;;;;;;;;;;;;;;;24.62;40.59;94238.88;5055287;28;7083;-65
2024/04/05 12:32:16;;;;;;;;;;;;;;;24.67;40.66;94246.34;5074059;28;7041;-65
2024/04/05 12:34:57;;;;;;;;;;;;;;;24.68;41.06;94242.34;5068792;28;7331;-65
2024/04/05 12:37:40;;;;;;;;;;;;;;;24.63;40.59;94229.38;5070219;28;7122;-65
2024/04/05 12:40:28;;;;;;;;;;;;;;;24.73;41.29;94227.06;5091054;28;9068;-65
2024/04/05 12:43:04;;;;;;;;;;;;;;;24.75;40.74;94229.34;5072484;28;9191;-65
2024/04/05 12:45:35;;;;;;;;;;;;;;;24.73;40.54;94225.06;5072270;28;7176;-64
2024/04/05 12:48:18;;;;;;;;;;;;;;;24.71;40.47;94219.31;5074058;28;7293;-64
2024/04/05 12:51:05;;;;;;;;;;;;;;;24.79;40.24;94236.06;5071413;28;7018;-65
2024/04/05 12:53:47;;;;;;;;;;;;;;;24.78;40.07;94225.56;5071862;28;7026;-64
2024/04/05 12:56:17;;;;;;;;;;;;;;;24.87;40.67;94239.00;5070666;28;7076;-65
2024/04/05 12:58:47;;;;;;;;;;;;;;;24.90;40.11;94236.00;5054686;28;7026;-64
2024/04/05 13:01:16;;;;;;;;;;;;;;;24.87;39.67;94236.25;5071018;28;8401;-65
2024/04/05 13:03:45;;;;;;;;;;;;;;;24.92;40.40;94238.25;5072344;28;7183;-64
2024/04/05 13:06:22;;;;;;;;;;;;;;;24.87;40.04;94228.00;5072042;28;7018;-64
2024/04/05 13:08:55;;;;;;;;;;;;;;;24.95;39.27;94235.22;5071936;28;7109;-65
2024/04/05 13:11:40;;;;;;;;;;;;;;;24.96;39.59;94230.47;5071966;28;7090;-65
2024/04/05 13:14:12;;;;;;;;;;;;;;;24.91;38.92;94212.72;5071364;28;7112;-57
2024/04/05 13:16:59;;;;;;;;;;;;;;;24.93;39.42;94215.72;5069948;28;7237;-57
2024/04/05 13:19:26;;;;;;;;;;;;;;;25.01;39.87;94224.19;5055410;28;7557;-57
2024/04/05 13:22:04;;;;;;;;;;;;;;;25.05;39.51;94235.66;5054123;28;6992;-57
2024/04/05 13:24:56;;;;;;;;;;;;;;;25.08;38.95;94237.38;5071977;28;7803;-57
2024/04/05 13:27:25;;;;;;;;;;;;;;;25.08;39.00;94229.13;5053141;28;7220;-57